sensor_id;sensor_type;location;lat;lon;timestamp;pressure;altitude;pressure_sealevel;temperature;humidity
75414;BME280;64758;52.122;5.404;2023-03-29T00:02:22;101879.53;;;5.51;91.82
75414;BME280;64758;52.122;5.404;2023-03-29T00:04:56;101891.72;;;5.52;91.93
75414;BME280;64758;52.122;5.404;2023-03-29T00:07:27;101885.50;;;5.53;92.09
75414;BME280;64758;52.122;5.404;2023-03-29T00:09:55;101892.19;;;5.57;92.31
75414;BME280;64758;52.122;5.404;2023-03-29T00:12:22;101894.81;;;5.57;91.97
75414;BME280;64758;52.122;5.404;2023-03-29T00:14:48;101877.44;;;5.55;91.86
75414;BME280;64758;52.122;5.404;2023-03-29T00:17:15;101885.94;;;5.58;91.76
75414;BME280;64758;52.122;5.404;2023-03-29T00:19:45;101885.09;;;5.58;91.74
75414;BME280;64758;52.122;5.404;2023-03-29T00:22:12;101883.44;;;5.57;91.42
75414;BME280;64758;52.122;5.404;2023-03-29T00:24:45;101882.59;;;5.56;91.02
75414;BME280;64758;52.122;5.404;2023-03-29T00:27:15;101868.22;;;5.60;91.59
75414;BME280;64758;52.122;5.404;2023-03-29T00:29:42;101861.28;;;5.59;91.33
75414;BME280;64758;52.122;5.404;2023-03-29T00:32:08;101844.88;;;5.56;91.17
75414;BME280;64758;52.122;5.404;2023-03-29T00:34:35;101831.69;;;5.56;91.61
75414;BME280;64758;52.122;5.404;2023-03-29T00:37:02;101837.41;;;5.61;91.33
75414;BME280;64758;52.122;5.404;2023-03-29T00:39:29;101835.88;;;5.58;91.20
75414;BME280;64758;52.122;5.404;2023-03-29T00:41:56;101835.63;;;5.61;91.57
75414;BME280;64758;52.122;5.404;2023-03-29T00:44:52;101838.25;;;5.61;91.66
75414;BME280;64758;52.122;5.404;2023-03-29T00:50:05;101817.19;;;5.61;90.96
75414;BME280;64758;52.122;5.404;2023-03-29T00:52:34;101813.84;;;5.59;90.85
75414;BME280;64758;52.122;5.404;2023-03-29T00:55:05;101817.19;;;5.61;90.50
75414;BME280;64758;52.122;5.404;2023-03-29T00:57:36;101810.94;;;5.62;91.17
75414;BME280;64758;52.122;5.404;2023-03-29T01:00:05;101816.06;;;5.64;90.36
75414;BME280;64758;52.122;5.404;2023-03-29T01:02:37;101796.09;;;5.61;90.26
75414;BME280;64758;52.122;5.404;2023-03-29T01:05:09;101808.03;;;5.65;89.85
75414;BME280;64758;52.122;5.404;2023-03-29T01:08:11;101806.81;;;5.69;90.19
75414;BME280;64758;52.122;5.404;2023-03-29T01:10:47;101791.56;;;5.73;89.83
75414;BME280;64758;52.122;5.404;2023-03-29T01:13:24;101797.69;;;5.73;89.86
75414;BME280;64758;52.122;5.404;2023-03-29T01:15:55;101778.13;;;5.76;89.66
75414;BME280;64758;52.122;5.404;2023-03-29T01:18:22;101785.53;;;5.82;89.72
75414;BME280;64758;52.122;5.404;2023-03-29T01:26:44;101785.69;;;5.90;88.90
75414;BME280;64758;52.122;5.404;2023-03-29T01:32:04;101781.56;;;5.97;87.70
75414;BME280;64758;52.122;5.404;2023-03-29T01:39:34;101770.97;;;6.17;85.18
75414;BME280;64758;52.122;5.404;2023-03-29T01:42:13;101769.03;;;6.19;85.41
75414;BME280;64758;52.122;5.404;2023-03-29T01:44:45;101775.00;;;6.21;85.08
75414;BME280;64758;52.122;5.404;2023-03-29T01:47:26;101759.97;;;6.22;85.46
75414;BME280;64758;52.122;5.404;2023-03-29T01:50:31;101760.41;;;6.27;85.15
75414;BME280;64758;52.122;5.404;2023-03-29T01:53:15;101757.66;;;6.28;85.42
75414;BME280;64758;52.122;5.404;2023-03-29T01:56:06;101748.63;;;6.30;85.23
75414;BME280;64758;52.122;5.404;2023-03-29T01:58:38;101755.56;;;6.31;84.68
75414;BME280;64758;52.122;5.404;2023-03-29T02:01:07;101756.53;;;6.30;84.75
75414;BME280;64758;52.122;5.404;2023-03-29T02:03:37;101749.31;;;6.32;85.13
75414;BME280;64758;52.122;5.404;2023-03-29T02:06:12;101742.53;;;6.30;85.35
75414;BME280;64758;52.122;5.404;2023-03-29T02:08:41;101750.00;;;6.34;85.41
75414;BME280;64758;52.122;5.404;2023-03-29T02:11:08;101738.75;;;6.32;85.80
75414;BME280;64758;52.122;5.404;2023-03-29T02:13:35;101734.47;;;6.31;85.63
75414;BME280;64758;52.122;5.404;2023-03-29T02:16:07;101725.72;;;6.31;85.48
75414;BME280;64758;52.122;5.404;2023-03-29T02:18:35;101734.88;;;6.36;86.04
75414;BME280;64758;52.122;5.404;2023-03-29T02:21:01;101731.53;;;6.34;85.49
75414;BME280;64758;52.122;5.404;2023-03-29T02:23:40;101738.38;;;6.37;85.77
75414;BME280;64758;52.122;5.404;2023-03-29T02:26:11;101722.81;;;6.34;86.18
75414;BME280;64758;52.122;5.404;2023-03-29T02:28:40;101723.09;;;6.31;86.37
75414;BME280;64758;52.122;5.404;2023-03-29T02:31:33;101721.84;;;6.35;86.10
75414;BME280;64758;52.122;5.404;2023-03-29T02:36:58;101709.75;;;6.32;86.71
75414;BME280;64758;52.122;5.404;2023-03-29T02:39:28;101712.97;;;6.36;86.92
75414;BME280;64758;52.122;5.404;2023-03-29T02:41:57;101704.34;;;6.34;87.08
75414;BME280;64758;52.122;5.404;2023-03-29T02:44:30;101718.22;;;6.36;87.16
75414;BME280;64758;52.122;5.404;2023-03-29T02:47:22;101716.41;;;6.36;86.92
75414;BME280;64758;52.122;5.404;2023-03-29T02:49:50;101710.97;;;6.38;87.26
75414;BME280;64758;52.122;5.404;2023-03-29T02:52:22;101710.97;;;6.38;87.81
75414;BME280;64758;52.122;5.404;2023-03-29T02:54:53;101702.25;;;6.37;87.93
75414;BME280;64758;52.122;5.404;2023-03-29T02:57:21;101705.59;;;6.39;88.08
75414;BME280;64758;52.122;5.404;2023-03-29T02:59:53;101705.59;;;6.39;88.23
75414;BME280;64758;52.122;5.404;2023-03-29T03:02:20;101696.69;;;6.40;88.03
75414;BME280;64758;52.122;5.404;2023-03-29T03:04:47;101700.16;;;6.41;88.44
75414;BME280;64758;52.122;5.404;2023-03-29T03:07:13;101696.69;;;6.40;88.71
75414;BME280;64758;52.122;5.404;2023-03-29T03:09:40;101697.66;;;6.39;88.30
75414;BME280;64758;52.122;5.404;2023-03-29T03:12:07;101687.66;;;6.43;88.58
75414;BME280;64758;52.122;5.404;2023-03-29T03:14:34;101686.97;;;6.41;88.54
75414;BME280;64758;52.122;5.404;2023-03-29T03:17:00;101687.66;;;6.43;88.92
75414;BME280;64758;52.122;5.404;2023-03-29T03:19:30;101679.19;;;6.39;89.02
75414;BME280;64758;52.122;5.404;2023-03-29T03:21:56;101673.06;;;6.39;88.65
75414;BME280;64758;52.122;5.404;2023-03-29T03:24:23;101678.34;;;6.39;88.93
75414;BME280;64758;52.122;5.404;2023-03-29T03:26:50;101666.13;;;6.38;89.27
75414;BME280;64758;52.122;5.404;2023-03-29T03:29:16;101678.34;;;6.39;89.44
75414;BME280;64758;52.122;5.404;2023-03-29T03:31:43;101676.69;;;6.38;89.45
75414;BME280;64758;52.122;5.404;2023-03-29T03:34:10;101658.66;;;6.33;89.84
75414;BME280;64758;52.122;5.404;2023-03-29T03:36:36;101662.25;;;6.32;90.17
75414;BME280;64758;52.122;5.404;2023-03-29T03:39:03;101663.94;;;6.33;89.97
75414;BME280;64758;52.122;5.404;2023-03-29T03:41:33;101663.94;;;6.33;90.23
75414;BME280;64758;52.122;5.404;2023-03-29T03:44:00;101668.78;;;6.38;90.55
75414;BME280;64758;52.122;5.404;2023-03-29T03:46:27;101669.19;;;6.33;90.68
75414;BME280;64758;52.122;5.404;2023-03-29T03:48:55;101671.03;;;6.33;90.62
75414;BME280;64758;52.122;5.404;2023-03-29T03:51:22;101667.41;;;6.34;91.01
75414;BME280;64758;52.122;5.404;2023-03-29T03:53:48;101667.78;;;6.39;90.74
75414;BME280;64758;52.122;5.404;2023-03-29T03:56:15;101671.41;;;6.38;90.62
75414;BME280;64758;52.122;5.404;2023-03-29T03:58:41;101673.50;;;6.34;90.88
75414;BME280;64758;52.122;5.404;2023-03-29T04:01:08;101662.84;;;6.36;90.80
75414;BME280;64758;52.122;5.404;2023-03-29T04:03:35;101666.81;;;6.40;90.82
75414;BME280;64758;52.122;5.404;2023-03-29T04:06:03;101671.13;;;6.41;90.44
75414;BME280;64758;52.122;5.404;2023-03-29T04:08:30;101669.63;;;6.38;90.96
75414;BME280;64758;52.122;5.404;2023-03-29T04:10:57;101664.50;;;6.37;90.57
75414;BME280;64758;52.122;5.404;2023-03-29T04:13:25;101671.13;;;6.41;90.98
75414;BME280;64758;52.122;5.404;2023-03-29T04:15:53;101657.94;;;6.41;90.95
75414;BME280;64758;52.122;5.404;2023-03-29T04:18:24;101658.91;;;6.40;91.06
75414;BME280;64758;52.122;5.404;2023-03-29T04:20:50;101655.19;;;6.42;91.09
75414;BME280;64758;52.122;5.404;2023-03-29T04:23:17;101650.88;;;6.41;90.78
75414;BME280;64758;52.122;5.404;2023-03-29T04:25:44;101652.53;;;6.42;90.62
75414;BME280;64758;52.122;5.404;2023-03-29T04:28:11;101650.31;;;6.38;90.62
75414;BME280;64758;52.122;5.404;2023-03-29T04:30:38;101646.56;;;6.40;90.21
75414;BME280;64758;52.122;5.404;2023-03-29T04:33:05;101646.41;;;6.42;89.99
75414;BME280;64758;52.122;5.404;2023-03-29T04:35:32;101634.47;;;6.38;90.48
75414;BME280;64758;52.122;5.404;2023-03-29T04:37:58;101638.66;;;6.40;90.52
75414;BME280;64758;52.122;5.404;2023-03-29T04:40:25;101640.84;;;6.45;90.40
75414;BME280;64758;52.122;5.404;2023-03-29T04:42:51;101638.66;;;6.40;90.72
75414;BME280;64758;52.122;5.404;2023-03-29T04:45:19;101631.56;;;6.41;90.62
75414;BME280;64758;52.122;5.404;2023-03-29T04:47:46;101635.56;;;6.45;90.62
75414;BME280;64758;52.122;5.404;2023-03-29T04:50:13;101642.09;;;6.41;90.67
75414;BME280;64758;52.122;5.404;2023-03-29T04:52:39;101634.06;;;6.42;90.68
75414;BME280;64758;52.122;5.404;2023-03-29T04:55:07;101630.75;;;6.40;90.88
75414;BME280;64758;52.122;5.404;2023-03-29T04:57:33;101631.44;;;6.42;91.08
75414;BME280;64758;52.122;5.404;2023-03-29T05:00:00;101634.59;;;6.46;90.94
75414;BME280;64758;52.122;5.404;2023-03-29T05:02:27;101628.63;;;6.44;90.92
75414;BME280;64758;52.122;5.404;2023-03-29T05:04:56;101631.84;;;6.47;90.55
75414;BME280;64758;52.122;5.404;2023-03-29T05:07:22;101630.88;;;6.48;90.71
75414;BME280;64758;52.122;5.404;2023-03-29T05:09:49;101638.09;;;6.46;91.03
75414;BME280;64758;52.122;5.404;2023-03-29T05:12:16;101632.66;;;6.48;90.59
75414;BME280;64758;52.122;5.404;2023-03-29T05:14:42;101624.06;;;6.46;90.82
75414;BME280;64758;52.122;5.404;2023-03-29T05:17:09;101622.09;;;6.48;90.50
75414;BME280;64758;52.122;5.404;2023-03-29T05:19:35;101627.78;;;6.53;90.40
75414;BME280;64758;52.122;5.404;2023-03-29T05:22:03;101630.59;;;6.51;90.68
75414;BME280;64758;52.122;5.404;2023-03-29T05:24:30;101625.16;;;6.53;90.34
75414;BME280;64758;52.122;5.404;2023-03-29T05:26:57;101625.31;;;6.51;90.41
75414;BME280;64758;52.122;5.404;2023-03-29T05:29:23;101629.63;;;6.52;90.27
75414;BME280;64758;52.122;5.404;2023-03-29T05:31:50;101622.50;;;6.53;90.39
75414;BME280;64758;52.122;5.404;2023-03-29T05:34:17;101639.72;;;6.57;90.17
75414;BME280;64758;52.122;5.404;2023-03-29T05:36:45;101637.94;;;6.57;90.12
75414;BME280;64758;52.122;5.404;2023-03-29T05:39:11;101633.47;;;6.58;90.49
75414;BME280;64758;52.122;5.404;2023-03-29T05:41:38;101641.41;;;6.58;90.84
75414;BME280;64758;52.122;5.404;2023-03-29T05:44:05;101635.03;;;6.60;90.56
75414;BME280;64758;52.122;5.404;2023-03-29T05:46:31;101637.50;;;6.62;90.19
75414;BME280;64758;52.122;5.404;2023-03-29T05:48:58;101626.13;;;6.61;90.71
75414;BME280;64758;52.122;5.404;2023-03-29T05:51:24;101638.88;;;6.66;90.50
75414;BME280;64758;52.122;5.404;2023-03-29T05:53:51;101630.84;;;6.67;90.60
75414;BME280;64758;52.122;5.404;2023-03-29T05:56:18;101634.47;;;6.66;90.23
75414;BME280;64758;52.122;5.404;2023-03-29T05:58:45;101642.78;;;6.71;90.19
75414;BME280;64758;52.122;5.404;2023-03-29T06:01:14;101634.03;;;6.71;90.10
75414;BME280;64758;52.122;5.404;2023-03-29T06:03:43;101638.03;;;6.75;90.09
75414;BME280;64758;52.122;5.404;2023-03-29T06:06:11;101636.78;;;6.79;90.20
75414;BME280;64758;52.122;5.404;2023-03-29T06:08:41;101627.31;;;6.86;90.34
75414;BME280;64758;52.122;5.404;2023-03-29T06:11:09;101645.50;;;6.89;90.40
75414;BME280;64758;52.122;5.404;2023-03-29T06:13:36;101641.09;;;6.89;90.05
75414;BME280;64758;52.122;5.404;2023-03-29T06:16:08;101640.78;;;6.92;90.02
75414;BME280;64758;52.122;5.404;2023-03-29T06:18:35;101630.22;;;6.92;89.85
75414;BME280;64758;52.122;5.404;2023-03-29T06:21:03;101633.28;;;6.97;89.57
75414;BME280;64758;52.122;5.404;2023-03-29T06:23:30;101634.94;;;6.98;89.58
75414;BME280;64758;52.122;5.404;2023-03-29T06:25:57;101637.13;;;7.03;89.67
75414;BME280;64758;52.122;5.404;2023-03-29T06:28:25;101637.53;;;7.08;89.24
75414;BME280;64758;52.122;5.404;2023-03-29T06:30:52;101632.94;;;7.10;89.00
75414;BME280;64758;52.122;5.404;2023-03-29T06:33:22;101636.53;;;7.18;88.63
75414;BME280;64758;52.122;5.404;2023-03-29T06:35:49;101638.72;;;7.23;88.80
75414;BME280;64758;52.122;5.404;2023-03-29T06:38:16;101639.69;;;7.31;88.54
75414;BME280;64758;52.122;5.404;2023-03-29T06:40:42;101641.75;;;7.37;88.26
75414;BME280;64758;52.122;5.404;2023-03-29T06:43:10;101641.97;;;7.44;88.29
75414;BME280;64758;52.122;5.404;2023-03-29T06:45:37;101633.75;;;7.47;87.94
75414;BME280;64758;52.122;5.404;2023-03-29T06:48:05;101645.13;;;7.56;88.30
75414;BME280;64758;52.122;5.404;2023-03-29T06:50:33;101650.50;;;7.64;88.37
75414;BME280;64758;52.122;5.404;2023-03-29T06:53:00;101639.94;;;7.64;88.36
75414;BME280;64758;52.122;5.404;2023-03-29T06:55:27;101645.13;;;7.74;88.67
75414;BME280;64758;52.122;5.404;2023-03-29T06:57:54;101633.97;;;7.80;88.84
75414;BME280;64758;52.122;5.404;2023-03-29T07:00:21;101651.19;;;7.84;88.93
75414;BME280;64758;52.122;5.404;2023-03-29T07:02:54;101650.91;;;7.87;89.61
75414;BME280;64758;52.122;5.404;2023-03-29T07:05:22;101645.47;;;7.88;90.31
75414;BME280;64758;52.122;5.404;2023-03-29T07:07:49;101652.97;;;7.93;90.29
75414;BME280;64758;52.122;5.404;2023-03-29T07:10:30;101663.41;;;7.94;90.94
75414;BME280;64758;52.122;5.404;2023-03-29T07:12:59;101650.84;;;7.96;90.33
75414;BME280;64758;52.122;5.404;2023-03-29T07:15:28;101658.72;;;8.06;90.60
75414;BME280;64758;52.122;5.404;2023-03-29T07:17:55;101644.50;;;8.07;90.32
75414;BME280;64758;52.122;5.404;2023-03-29T07:20:23;101654.34;;;8.14;90.19
75414;BME280;64758;52.122;5.404;2023-03-29T07:22:50;101652.34;;;8.26;90.52
75414;BME280;64758;52.122;5.404;2023-03-29T07:25:17;101655.66;;;8.28;89.55
75414;BME280;64758;52.122;5.404;2023-03-29T07:27:44;101649.25;;;8.30;89.48
75414;BME280;64758;52.122;5.404;2023-03-29T07:30:16;101656.72;;;8.35;89.48
75414;BME280;64758;52.122;5.404;2023-03-29T07:32:44;101658.94;;;8.39;89.07
75414;BME280;64758;52.122;5.404;2023-03-29T07:35:13;101659.75;;;8.40;88.77
75414;BME280;64758;52.122;5.404;2023-03-29T07:37:40;101658.31;;;8.45;89.13
75414;BME280;64758;52.122;5.404;2023-03-29T07:40:16;101659.38;;;8.52;88.74
75414;BME280;64758;52.122;5.404;2023-03-29T07:42:51;101659.56;;;8.59;88.35
75414;BME280;64758;52.122;5.404;2023-03-29T07:45:21;101656.63;;;8.62;87.85
75414;BME280;64758;52.122;5.404;2023-03-29T07:47:55;101663.34;;;8.74;87.44
75414;BME280;64758;52.122;5.404;2023-03-29T07:50:23;101659.94;;;8.81;87.60
75414;BME280;64758;52.122;5.404;2023-03-29T07:52:51;101665.13;;;8.90;86.81
75414;BME280;64758;52.122;5.404;2023-03-29T07:55:18;101659.34;;;8.95;86.79
75414;BME280;64758;52.122;5.404;2023-03-29T07:57:44;101659.19;;;8.96;86.70
75414;BME280;64758;52.122;5.404;2023-03-29T08:00:12;101647.97;;;9.02;86.33
75414;BME280;64758;52.122;5.404;2023-03-29T08:02:43;101641.38;;;9.06;86.12
75414;BME280;64758;52.122;5.404;2023-03-29T08:05:11;101650.56;;;9.20;86.14
75414;BME280;64758;52.122;5.404;2023-03-29T08:07:40;101658.19;;;9.23;86.40
75414;BME280;64758;52.122;5.404;2023-03-29T08:10:09;101651.75;;;9.25;84.97
75414;BME280;64758;52.122;5.404;2023-03-29T08:12:36;101646.41;;;9.17;84.75
75414;BME280;64758;52.122;5.404;2023-03-29T08:15:03;101659.84;;;9.24;85.38
75414;BME280;64758;52.122;5.404;2023-03-29T08:17:31;101653.91;;;9.30;85.69
75414;BME280;64758;52.122;5.404;2023-03-29T08:19:58;101648.63;;;9.30;85.68
75414;BME280;64758;52.122;5.404;2023-03-29T08:22:24;101654.63;;;9.40;85.06
75414;BME280;64758;52.122;5.404;2023-03-29T08:24:51;101660.25;;;9.37;85.80
75414;BME280;64758;52.122;5.404;2023-03-29T08:27:18;101663.47;;;9.48;85.97
75414;BME280;64758;52.122;5.404;2023-03-29T08:29:45;101656.00;;;9.52;85.50
75414;BME280;64758;52.122;5.404;2023-03-29T08:32:12;101650.44;;;9.63;85.35
75414;BME280;64758;52.122;5.404;2023-03-29T08:34:39;101637.34;;;9.61;85.42
75414;BME280;64758;52.122;5.404;2023-03-29T08:37:06;101634.53;;;9.71;84.82
75414;BME280;64758;52.122;5.404;2023-03-29T08:39:33;101635.22;;;9.81;84.60
75414;BME280;64758;52.122;5.404;2023-03-29T08:42:29;101638.91;;;9.88;85.53
75414;BME280;64758;52.122;5.404;2023-03-29T08:45:05;101628.16;;;9.89;85.44
75414;BME280;64758;52.122;5.404;2023-03-29T08:47:44;101627.69;;;10.10;84.82
75414;BME280;64758;52.122;5.404;2023-03-29T08:50:15;101625.38;;;10.07;84.32
75414;BME280;64758;52.122;5.404;2023-03-29T08:52:48;101631.69;;;10.06;84.33
75414;BME280;64758;52.122;5.404;2023-03-29T08:55:29;101626.72;;;10.11;84.62
75414;BME280;64758;52.122;5.404;2023-03-29T08:57:58;101643.16;;;10.14;84.88
75414;BME280;64758;52.122;5.404;2023-03-29T09:00:34;101652.09;;;10.13;85.26
75414;BME280;64758;52.122;5.404;2023-03-29T09:03:09;101660.56;;;10.16;86.24
75414;BME280;64758;52.122;5.404;2023-03-29T09:05:43;101648.81;;;10.19;84.68
75414;BME280;64758;52.122;5.404;2023-03-29T09:08:13;101656.59;;;10.20;84.83
75414;BME280;64758;52.122;5.404;2023-03-29T09:10:46;101658.75;;;10.17;85.47
75414;BME280;64758;52.122;5.404;2023-03-29T09:13:23;101653.59;;;10.15;85.71
75414;BME280;64758;52.122;5.404;2023-03-29T09:15:59;101656.44;;;10.14;85.06
75414;BME280;64758;52.122;5.404;2023-03-29T09:25:11;101648.97;;;10.49;85.60
75414;BME280;64758;52.122;5.404;2023-03-29T09:28:01;101653.63;;;10.55;85.76
75414;BME280;64758;52.122;5.404;2023-03-29T09:35:38;101648.31;;;10.79;84.31
75414;BME280;64758;52.122;5.404;2023-03-29T09:38:10;101649.97;;;10.88;84.35
75414;BME280;64758;52.122;5.404;2023-03-29T09:43:15;101659.75;;;10.88;84.63
75414;BME280;64758;52.122;5.404;2023-03-29T09:45:47;101646.00;;;10.76;85.19
75414;BME280;64758;52.122;5.404;2023-03-29T09:48:17;101639.66;;;10.85;85.21
75414;BME280;64758;52.122;5.404;2023-03-29T09:50:46;101649.94;;;10.96;86.06
75414;BME280;64758;52.122;5.404;2023-03-29T09:53:17;101640.31;;;11.03;85.80
75414;BME280;64758;52.122;5.404;2023-03-29T09:55:47;101644.28;;;11.07;85.04
75414;BME280;64758;52.122;5.404;2023-03-29T09:58:17;101650.44;;;10.92;85.32
75414;BME280;64758;52.122;5.404;2023-03-29T10:00:46;101646.00;;;10.76;85.63
75414;BME280;64758;52.122;5.404;2023-03-29T10:03:22;101646.66;;;10.70;86.06
75414;BME280;64758;52.122;5.404;2023-03-29T10:05:51;101649.47;;;10.77;86.64
75414;BME280;64758;52.122;5.404;2023-03-29T10:08:26;101644.66;;;10.88;86.77
75414;BME280;64758;52.122;5.404;2023-03-29T10:10:55;101652.59;;;10.96;86.53
75414;BME280;64758;52.122;5.404;2023-03-29T10:13:28;101651.06;;;11.10;86.04
75414;BME280;64758;52.122;5.404;2023-03-29T10:16:04;101638.97;;;11.07;85.64
75414;BME280;64758;52.122;5.404;2023-03-29T10:18:32;101642.06;;;11.19;85.63
75414;BME280;64758;52.122;5.404;2023-03-29T10:21:01;101628.56;;;11.36;84.76
75414;BME280;64758;52.122;5.404;2023-03-29T10:23:35;101636.81;;;11.57;84.78
75414;BME280;64758;52.122;5.404;2023-03-29T10:26:04;101629.13;;;11.62;84.45
75414;BME280;64758;52.122;5.404;2023-03-29T10:28:34;101634.25;;;11.71;84.06
75414;BME280;64758;52.122;5.404;2023-03-29T10:31:02;101628.63;;;11.66;84.71
75414;BME280;64758;52.122;5.404;2023-03-29T10:33:33;101630.59;;;11.72;83.23
75414;BME280;64758;52.122;5.404;2023-03-29T10:36:03;101631.75;;;11.70;83.85
75414;BME280;64758;52.122;5.404;2023-03-29T10:38:34;101624.16;;;11.59;83.85
75414;BME280;64758;52.122;5.404;2023-03-29T10:41:08;101633.16;;;11.58;84.94
75414;BME280;64758;52.122;5.404;2023-03-29T10:43:39;101618.38;;;11.55;85.73
75414;BME280;64758;52.122;5.404;2023-03-29T10:46:11;101624.31;;;11.65;84.94
75414;BME280;64758;52.122;5.404;2023-03-29T10:48:44;101612.81;;;11.65;86.39
75414;BME280;64758;52.122;5.404;2023-03-29T10:51:13;101614.13;;;11.69;86.07
75414;BME280;64758;52.122;5.404;2023-03-29T10:53:40;101614.78;;;11.71;87.28
75414;BME280;64758;52.122;5.404;2023-03-29T11:01:38;101597.00;;;11.71;87.83
75414;BME280;64758;52.122;5.404;2023-03-29T11:10:18;101603.19;;;11.64;88.95
75414;BME280;64758;52.122;5.404;2023-03-29T11:19:19;101593.91;;;11.52;91.74
75414;BME280;64758;52.122;5.404;2023-03-29T11:22:19;101589.53;;;11.67;92.33
75414;BME280;64758;52.122;5.404;2023-03-29T11:27:42;101590.47;;;11.74;92.37
75414;BME280;64758;52.122;5.404;2023-03-29T11:35:40;101591.78;;;11.78;91.92
75414;BME280;64758;52.122;5.404;2023-03-29T11:38:21;101598.81;;;12.01;91.12
75414;BME280;64758;52.122;5.404;2023-03-29T11:46:02;101596.34;;;12.22;89.59
75414;BME280;64758;52.122;5.404;2023-03-29T11:48:39;101584.13;;;12.50;87.68
75414;BME280;64758;52.122;5.404;2023-03-29T11:53:48;101588.44;;;12.51;86.16
75414;BME280;64758;52.122;5.404;2023-03-29T11:56:25;101589.81;;;12.47;87.03
75414;BME280;64758;52.122;5.404;2023-03-29T11:58:59;101596.56;;;12.35;86.41
75414;BME280;64758;52.122;5.404;2023-03-29T12:01:39;101598.56;;;12.33;86.86
75414;BME280;64758;52.122;5.404;2023-03-29T12:04:13;101601.59;;;12.30;87.10
75414;BME280;64758;52.122;5.404;2023-03-29T12:06:54;101615.84;;;12.15;87.33
75414;BME280;64758;52.122;5.404;2023-03-29T12:09:33;101602.13;;;12.03;87.57
75414;BME280;64758;52.122;5.404;2023-03-29T12:12:14;101598.41;;;12.12;88.04
75414;BME280;64758;52.122;5.404;2023-03-29T12:14:55;101598.09;;;12.07;87.05
75414;BME280;64758;52.122;5.404;2023-03-29T12:17:31;101597.38;;;11.91;87.95
75414;BME280;64758;52.122;5.404;2023-03-29T12:20:09;101589.22;;;11.92;88.84
75414;BME280;64758;52.122;5.404;2023-03-29T12:22:36;101578.97;;;12.04;88.49
75414;BME280;64758;52.122;5.404;2023-03-29T12:25:04;101586.16;;;12.03;88.24
75414;BME280;64758;52.122;5.404;2023-03-29T12:30:44;101579.78;;;11.82;88.85
75414;BME280;64758;52.122;5.404;2023-03-29T12:33:53;101590.78;;;11.79;89.37
75414;BME280;64758;52.122;5.404;2023-03-29T12:38:50;101580.22;;;11.63;90.42
75414;BME280;64758;52.122;5.404;2023-03-29T12:41:20;101572.91;;;11.65;91.23
75414;BME280;64758;52.122;5.404;2023-03-29T12:43:47;101582.53;;;11.66;90.57
75414;BME280;64758;52.122;5.404;2023-03-29T12:46:17;101578.75;;;11.60;91.86
75414;BME280;64758;52.122;5.404;2023-03-29T12:48:53;101585.91;;;11.60;91.42
75414;BME280;64758;52.122;5.404;2023-03-29T12:51:29;101580.13;;;11.56;91.34
75414;BME280;64758;52.122;5.404;2023-03-29T12:54:21;101572.28;;;11.55;91.27
75414;BME280;64758;52.122;5.404;2023-03-29T12:57:01;101562.31;;;11.57;92.07
75414;BME280;64758;52.122;5.404;2023-03-29T12:59:46;101539.31;;;11.64;91.00
75414;BME280;64758;52.122;5.404;2023-03-29T13:09:56;101512.06;;;12.07;90.34
75414;BME280;64758;52.122;5.404;2023-03-29T13:15:33;101519.63;;;12.18;89.86
75414;BME280;64758;52.122;5.404;2023-03-29T13:17:56;101506.28;;;12.18;90.32
75414;BME280;64758;52.122;5.404;2023-03-29T13:20:44;101497.50;;;12.32;90.50
75414;BME280;64758;52.122;5.404;2023-03-29T13:23:21;101498.63;;;12.37;89.54
75414;BME280;64758;52.122;5.404;2023-03-29T13:26:28;101492.38;;;12.45;89.81
75414;BME280;64758;52.122;5.404;2023-03-29T13:29:28;101489.19;;;12.64;88.84
75414;BME280;64758;52.122;5.404;2023-03-29T13:32:04;101478.81;;;12.68;88.38
75414;BME280;64758;52.122;5.404;2023-03-29T13:34:49;101476.34;;;12.67;87.35
75414;BME280;64758;52.122;5.404;2023-03-29T13:37:50;101482.47;;;12.68;88.18
75414;BME280;64758;52.122;5.404;2023-03-29T13:43:21;101490.38;;;12.75;86.86
75414;BME280;64758;52.122;5.404;2023-03-29T13:48:29;101475.84;;;12.78;86.69
75414;BME280;64758;52.122;5.404;2023-03-29T13:51:03;101481.16;;;12.78;86.34
75414;BME280;64758;52.122;5.404;2023-03-29T13:53:37;101481.75;;;12.73;87.11
75414;BME280;64758;52.122;5.404;2023-03-29T13:56:09;101480.00;;;12.80;85.81
75414;BME280;64758;52.122;5.404;2023-03-29T13:59:12;101464.91;;;12.87;85.34
75414;BME280;64758;52.122;5.404;2023-03-29T14:01:47;101456.84;;;12.95;85.62
75414;BME280;64758;52.122;5.404;2023-03-29T14:04:22;101448.84;;;12.95;84.39
75414;BME280;64758;52.122;5.404;2023-03-29T14:06:52;101443.19;;;13.05;85.91
75414;BME280;64758;52.122;5.404;2023-03-29T14:09:22;101439.56;;;13.27;84.94
75414;BME280;64758;52.122;5.404;2023-03-29T14:11:51;101436.47;;;13.44;83.96
75414;BME280;64758;52.122;5.404;2023-03-29T14:14:21;101432.91;;;13.58;83.75
75414;BME280;64758;52.122;5.404;2023-03-29T14:16:50;101438.78;;;13.68;82.62
75414;BME280;64758;52.122;5.404;2023-03-29T14:19:36;101436.16;;;13.54;83.11
75414;BME280;64758;52.122;5.404;2023-03-29T14:22:08;101427.63;;;13.44;83.50
75414;BME280;64758;52.122;5.404;2023-03-29T14:24:43;101430.44;;;13.57;83.39
75414;BME280;64758;52.122;5.404;2023-03-29T14:27:14;101426.09;;;13.77;83.44
75414;BME280;64758;52.122;5.404;2023-03-29T14:29:44;101420.16;;;14.02;84.09
75414;BME280;64758;52.122;5.404;2023-03-29T14:32:19;101417.19;;;14.18;82.03
75414;BME280;64758;52.122;5.404;2023-03-29T14:34:52;101413.34;;;14.27;82.20
75414;BME280;64758;52.122;5.404;2023-03-29T14:37:25;101412.22;;;14.42;81.14
75414;BME280;64758;52.122;5.404;2023-03-29T14:39:52;101399.28;;;14.46;80.32
75414;BME280;64758;52.122;5.404;2023-03-29T14:42:25;101395.44;;;14.55;80.35
75414;BME280;64758;52.122;5.404;2023-03-29T14:44:57;101391.72;;;14.56;79.96
75414;BME280;64758;52.122;5.404;2023-03-29T14:47:29;101393.19;;;14.58;80.07
75414;BME280;64758;52.122;5.404;2023-03-29T14:49:57;101384.72;;;14.55;80.01